Time;durP1;ratioP1;P1;durP2;ratioP2;P2;SDS_P1;SDS_P2;PMS_P1;PMS_P2;Temp;Humidity;BMP_temperature;BMP_pressure;BME280_temperature;BME280_humidity;BME280_pressure;Samples;Min_cycle;Max_cycle;Signal;HPM_P1;HPM_P2
2022/06/16 00:00:18;;;;;;;13.43;7.25;;;;;;;13.59;70.84;101566.52;1693888;84;21666;-88
2022/06/16 00:02:50;;;;;;;10.70;6.83;;;;;;;13.63;70.89;101566.14;1690481;84;21149;-88
2022/06/16 00:05:26;;;;;;;13.62;7.17;;;;;;;13.63;70.85;101567.46;1704968;83;21092;-87
2022/06/16 00:07:56;;;;;;;10.63;6.00;;;;;;;13.60;70.77;101568.30;1667473;84;21091;-91
2022/06/16 00:10:25;;;;;;;9.50;5.95;;;;;;;13.59;70.82;101567.41;1703198;83;21589;-88
2022/06/16 00:12:52;;;;;;;9.28;6.12;;;;;;;13.60;70.91;101561.68;1687946;84;21200;-88
2022/06/16 00:15:27;;;;;;;8.70;5.42;;;;;;;13.60;70.84;101564.33;1702088;83;21078;-89
2022/06/16 00:19:04;;;;;;;12.98;5.85;;;;;;;13.60;70.83;101565.20;1691856;84;21048;-92
2022/06/16 00:21:40;;;;;;;11.88;5.60;;;;;;;13.62;70.86;101558.64;1692125;84;21098;-92
2022/06/16 00:24:37;;;;;;;9.05;4.87;;;;;;;13.60;70.78;101560.36;1696609;84;22520;-91
2022/06/16 00:27:05;;;;;;;12.15;5.60;;;;;;;13.55;70.81;101557.61;1676694;84;21105;-88
2022/06/16 00:29:39;;;;;;;9.88;5.33;;;;;;;13.53;70.82;101558.00;1693258;83;21135;-89
2022/06/16 00:32:15;;;;;;;8.83;4.87;;;;;;;13.54;70.86;101555.80;1689862;84;21086;-88
2022/06/16 00:34:41;;;;;;;9.20;5.33;;;;;;;13.53;70.86;101546.09;1678226;84;21160;-89
2022/06/16 00:37:08;;;;;;;14.33;5.55;;;;;;;13.53;70.87;101547.42;1684166;84;21733;-90
2022/06/16 00:39:48;;;;;;;11.57;5.40;;;;;;;13.55;70.92;101543.47;1655188;85;21606;-90
2022/06/16 00:42:23;;;;;;;9.85;5.85;;;;;;;13.56;70.90;101542.63;1649259;85;21104;-91
2022/06/16 00:44:52;;;;;;;10.35;4.97;;;;;;;13.54;70.87;101532.00;1649414;83;21577;-91
2022/06/16 00:47:33;;;;;;;12.25;5.83;;;;;;;13.55;70.88;101528.92;1656000;85;21117;-90
2022/06/16 00:50:03;;;;;;;7.80;4.45;;;;;;;13.55;70.85;101531.56;1676926;85;22550;-91
2022/06/16 00:52:32;;;;;;;10.80;4.90;;;;;;;13.54;70.85;101534.64;1663020;85;21101;-91
2022/06/16 00:55:09;;;;;;;12.95;5.20;;;;;;;13.53;70.85;101533.27;1665545;85;21075;-89
2022/06/16 00:57:41;;;;;;;11.30;5.12;;;;;;;13.53;70.83;101528.91;1675244;85;21149;-86
2022/06/16 01:02:46;;;;;;;9.50;5.12;;;;;;;13.51;70.87;101518.69;1663370;85;21635;-86
2022/06/16 01:05:12;;;;;;;9.55;5.33;;;;;;;13.50;70.87;101518.67;1652975;86;21114;-87
2022/06/16 01:07:41;;;;;;;10.78;5.42;;;;;;;13.49;70.93;101519.52;1664876;86;21202;-88
2022/06/16 01:10:08;;;;;;;10.80;4.78;;;;;;;13.50;71.01;101515.59;1621423;86;21119;-88
2022/06/16 01:16:28;;;;;;;11.00;5.30;;;;;;;13.53;70.95;101510.80;1646295;85;22007;-88
2022/06/16 01:19:42;;;;;;;9.08;5.25;;;;;;;13.50;70.90;101508.98;1687403;83;21606;-89
2022/06/16 01:22:28;;;;;;;11.12;5.00;;;;;;;13.47;70.94;101505.36;1629625;87;21624;-88
2022/06/16 01:25:31;;;;;;;10.38;5.05;;;;;;;13.50;70.97;101497.52;1650083;85;21078;-89
2022/06/16 01:28:07;;;;;;;7.17;4.40;;;;;;;13.47;70.91;101493.45;1669554;85;21774;-90
2022/06/16 01:30:57;;;;;;;8.08;4.45;;;;;;;13.47;70.99;101494.78;1660550;85;21848;-93
2022/06/16 01:33:47;;;;;;;9.28;4.80;;;;;;;13.45;70.91;101505.31;1675503;85;21092;-88
2022/06/16 01:36:25;;;;;;;7.85;4.95;;;;;;;13.43;71.03;101501.73;1621841;87;21170;-89
2022/06/16 01:39:04;;;;;;;9.48;4.83;;;;;;;13.43;71.01;101502.17;1624980;87;21186;-88
2022/06/16 01:41:47;;;;;;;8.65;5.22;;;;;;;13.40;71.01;101506.53;1576478;88;21150;-90
2022/06/16 01:44:24;;;;;;;12.40;5.30;;;;;;;13.37;70.98;101509.52;1640257;86;21725;-90
2022/06/16 01:46:56;;;;;;;10.60;4.62;;;;;;;13.32;70.94;101505.86;1651299;86;21110;-91
2022/06/16 01:49:28;;;;;;;8.23;4.37;;;;;;;13.29;70.90;101503.09;1652732;84;21166;-91
2022/06/16 01:52:00;;;;;;;9.58;4.87;;;;;;;13.28;70.96;101502.64;1632937;86;21130;-90
2022/06/16 01:54:36;;;;;;;11.60;5.17;;;;;;;13.22;70.86;101508.66;1639066;86;21119;-89
2022/06/16 01:57:14;;;;;;;8.60;3.65;;;;;;;13.18;70.89;101504.16;1662734;84;21724;-89
2022/06/16 02:00:15;;;;;;;8.05;4.25;;;;;;;13.13;70.91;101505.34;1652872;86;21691;-88
2022/06/16 02:02:41;;;;;;;10.28;4.55;;;;;;;13.09;70.88;101495.98;1705803;82;21088;-87
2022/06/16 02:05:25;;;;;;;6.55;3.45;;;;;;;13.10;71.02;101503.04;1730562;82;21102;-86
2022/06/16 02:08:01;;;;;;;9.05;3.60;;;;;;;13.09;70.99;101506.55;1739039;82;21328;-87
2022/06/16 02:10:35;;;;;;;9.88;3.58;;;;;;;13.04;71.04;101498.48;1745391;82;22668;-88
2022/06/16 02:13:04;;;;;;;7.33;3.65;;;;;;;13.02;71.05;101505.48;1738785;82;21946;-88
2022/06/16 02:15:55;;;;;;;5.33;3.25;;;;;;;13.01;71.05;101497.09;1716293;82;21043;-88
2022/06/16 02:18:25;;;;;;;7.12;3.25;;;;;;;13.00;71.06;101496.18;1727676;82;21737;-89
2022/06/16 02:21:13;;;;;;;7.53;3.33;;;;;;;13.00;70.99;101497.50;1745741;82;21078;-88
2022/06/16 02:23:45;;;;;;;7.95;3.37;;;;;;;13.03;71.00;101503.31;1746142;82;21785;-90
2022/06/16 02:26:17;;;;;;;6.00;3.47;;;;;;;13.03;71.05;101495.39;1746310;82;21028;-89
2022/06/16 02:28:51;;;;;;;9.58;3.60;;;;;;;13.06;71.08;101490.60;1731824;82;21158;-90
2022/06/16 02:32:03;;;;;;;8.70;3.80;;;;;;;13.10;71.08;101492.47;1716877;82;21072;-91
2022/06/16 02:35:10;;;;;;;7.83;3.85;;;;;;;13.11;71.09;101489.87;1716741;83;21111;-91
2022/06/16 02:37:48;;;;;;;5.35;3.25;;;;;;;13.19;71.13;101484.78;1733844;82;21751;-90
2022/06/16 02:40:51;;;;;;;10.45;4.00;;;;;;;13.24;71.02;101476.55;1745795;82;21078;-89
2022/06/16 02:43:42;;;;;;;7.50;3.30;;;;;;;13.26;70.99;101481.45;1718740;82;21075;-90
2022/06/16 02:46:35;;;;;;;8.80;3.52;;;;;;;13.31;71.01;101482.94;1727260;82;21184;-88
2022/06/16 02:49:28;;;;;;;6.67;3.52;;;;;;;13.36;70.89;101486.56;1679631;85;21133;-88
2022/06/16 02:52:18;;;;;;;8.68;3.75;;;;;;;13.37;70.84;101487.05;1659591;86;21798;-91
2022/06/16 02:54:58;;;;;;;7.78;3.67;;;;;;;13.43;70.80;101481.02;1647673;86;21129;-88
2022/06/16 02:57:50;;;;;;;8.25;4.05;;;;;;;13.50;70.81;101482.97;1626073;87;21100;-89
2022/06/16 03:00:28;;;;;;;4.60;2.90;;;;;;;13.61;70.75;101477.52;1639335;86;21694;-87
2022/06/16 03:02:55;;;;;;;8.73;3.65;;;;;;;13.75;70.74;101477.39;1610044;87;21134;-86
2022/06/16 03:05:21;;;;;;;6.17;3.40;;;;;;;13.87;70.58;101474.16;1652519;86;21747;-87
2022/06/16 03:07:48;;;;;;;5.40;3.00;;;;;;;13.97;70.48;101466.88;1608223;88;21415;-85
2022/06/16 03:10:50;;;;;;;7.08;3.27;;;;;;;14.11;70.30;101472.91;1631720;86;21149;-88
2022/06/16 03:12:52;;;;;;;6.45;3.37;;;;;;;14.17;69.97;101471.70;1568998;91;21604;-85
2022/06/16 03:15:19;;;;;;;5.65;2.98;;;;;;;14.19;69.70;101482.81;1619115;86;21150;-85
2022/06/16 03:17:46;;;;;;;8.20;3.30;;;;;;;14.27;69.58;101482.09;1624058;86;21770;-88
2022/06/16 03:20:13;;;;;;;4.62;3.20;;;;;;;14.28;69.33;101474.16;1613559;86;21647;-88
2022/06/16 03:22:39;;;;;;;5.20;3.10;;;;;;;14.34;69.27;101473.39;1606290;86;21636;-87
2022/06/16 03:25:07;;;;;;;6.80;3.33;;;;;;;14.42;69.24;101471.81;1630501;86;21102;-87
2022/06/16 03:27:34;;;;;;;4.67;3.22;;;;;;;14.50;69.03;101471.97;1660588;86;21925;-86
2022/06/16 03:30:00;;;;;;;6.55;3.60;;;;;;;14.54;68.90;101469.40;1723664;81;21813;-86
2022/06/16 03:32:28;;;;;;;5.85;3.08;;;;;;;14.58;68.70;101467.34;1727805;82;21430;-87
2022/06/16 03:34:54;;;;;;;8.85;3.42;;;;;;;14.62;68.66;101463.40;1733805;82;21051;-86
2022/06/16 03:37:23;;;;;;;6.62;3.72;;;;;;;14.69;68.65;101460.91;1671868;85;21170;-87
2022/06/16 03:39:49;;;;;;;4.65;2.92;;;;;;;14.80;68.63;101458.91;1695078;83;21063;-89
2022/06/16 03:42:16;;;;;;;5.78;3.40;;;;;;;14.91;68.54;101462.20;1713495;83;22792;-90
2022/06/16 03:44:43;;;;;;;4.35;2.90;;;;;;;15.01;68.26;101465.91;1671097;85;21101;-90
2022/06/16 03:47:09;;;;;;;5.47;2.98;;;;;;;15.07;68.17;101462.08;1696617;84;21042;-87
2022/06/16 03:49:36;;;;;;;5.05;3.50;;;;;;;15.16;68.08;101451.63;1722147;83;21090;-88
2022/06/16 03:52:03;;;;;;;5.33;2.80;;;;;;;15.23;67.70;101450.41;1688915;83;21109;-87
2022/06/16 03:54:30;;;;;;;5.08;2.92;;;;;;;15.25;67.41;101457.95;1706653;83;21219;-88
2022/06/16 03:56:57;;;;;;;5.45;2.70;;;;;;;15.26;67.23;101451.35;1662758;85;21147;-86
2022/06/16 03:59:24;;;;;;;2.98;2.25;;;;;;;15.31;67.11;101450.09;1691323;83;21129;-86
2022/06/16 04:01:50;;;;;;;5.17;2.52;;;;;;;15.35;66.89;101447.94;1686463;83;21140;-87
2022/06/16 04:04:18;;;;;;;4.03;2.52;;;;;;;15.42;66.83;101438.33;1714958;83;22047;-87
2022/06/16 04:06:44;;;;;;;4.42;2.72;;;;;;;15.52;66.81;101446.47;1713259;83;21783;-86
2022/06/16 04:09:11;;;;;;;5.10;2.95;;;;;;;15.63;66.67;101440.42;1672474;84;21102;-86
2022/06/16 04:11:38;;;;;;;3.62;2.92;;;;;;;15.79;66.58;101438.50;1696782;84;21294;-87
2022/06/16 04:14:11;;;;;;;5.25;3.05;;;;;;;16.00;66.45;101433.92;1676497;84;21090;-87
2022/06/16 04:16:40;;;;;;;4.28;2.72;;;;;;;16.16;66.24;101433.70;1683440;84;22161;-87
2022/06/16 04:19:11;;;;;;;8.00;2.83;;;;;;;16.38;65.99;101441.48;1675736;84;21793;-88
2022/06/16 04:21:40;;;;;;;5.53;2.67;;;;;;;16.63;65.65;101443.09;1672058;85;21536;-88
2022/06/16 04:24:07;;;;;;;7.03;2.40;;;;;;;16.85;65.34;101444.25;1720762;83;21055;-87
2022/06/16 04:26:37;;;;;;;3.72;2.40;;;;;;;17.12;65.12;101439.66;1691264;84;21075;-88
2022/06/16 04:29:06;;;;;;;3.83;2.45;;;;;;;17.39;64.65;101442.98;1678214;84;21114;-87
2022/06/16 04:31:32;;;;;;;6.92;4.50;;;;;;;17.64;64.20;101452.06;1675605;85;21813;-88
2022/06/16 04:33:59;;;;;;;5.40;2.40;;;;;;;17.88;63.72;101439.34;1692706;84;21090;-87
2022/06/16 04:36:26;;;;;;;4.20;2.40;;;;;;;18.10;63.27;101438.60;1675355;84;22492;-86
2022/06/16 04:38:54;;;;;;;2.98;1.90;;;;;;;18.24;63.04;101446.20;1697806;84;21129;-86
2022/06/16 04:41:22;;;;;;;3.75;2.10;;;;;;;18.42;62.65;101436.06;1687103;84;21075;-86
2022/06/16 04:43:49;;;;;;;5.87;2.60;;;;;;;18.57;62.23;101432.56;1704145;83;21770;-87
2022/06/16 04:46:16;;;;;;;2.85;1.95;;;;;;;18.62;61.80;101439.69;1670515;84;21114;-87
2022/06/16 04:48:43;;;;;;;4.55;2.12;;;;;;;18.67;61.57;101443.69;1709661;83;22265;-87
2022/06/16 04:51:11;;;;;;;5.42;2.00;;;;;;;18.63;61.33;101446.78;1706654;83;21099;-87
2022/06/16 04:53:44;;;;;;;4.87;2.15;;;;;;;18.62;61.12;101444.14;1703139;83;21050;-87
2022/06/16 04:56:18;;;;;;;2.87;1.85;;;;;;;18.53;60.92;101445.45;1668837;84;22582;-88
2022/06/16 04:58:45;;;;;;;3.08;1.90;;;;;;;18.50;60.90;101446.75;1694297;83;21424;-89
2022/06/16 05:01:11;;;;;;;4.40;2.00;;;;;;;18.54;60.87;101452.54;1703050;83;21078;-89
2022/06/16 05:03:38;;;;;;;5.45;1.90;;;;;;;18.64;60.72;101441.03;1679793;84;21718;-87
2022/06/16 05:06:05;;;;;;;4.22;2.10;;;;;;;18.77;60.56;101444.17;1687882;84;21101;-87
2022/06/16 05:08:31;;;;;;;3.85;1.87;;;;;;;18.93;60.27;101442.45;1691294;84;21721;-87
2022/06/16 05:10:58;;;;;;;3.77;1.87;;;;;;;19.11;60.15;101441.59;1695127;84;21162;-86
2022/06/16 05:13:25;;;;;;;4.40;2.10;;;;;;;19.30;59.76;101439.81;1685910;84;21086;-85
2022/06/16 05:15:55;;;;;;;2.70;1.85;;;;;;;19.43;59.51;101441.59;1698642;84;21080;-88
2022/06/16 05:18:21;;;;;;;6.80;2.55;;;;;;;19.53;59.15;101437.13;1696734;84;21062;-86
2022/06/16 05:20:48;;;;;;;3.12;2.10;;;;;;;19.70;59.05;101434.88;1681221;84;22594;-86
2022/06/16 05:23:15;;;;;;;3.87;2.08;;;;;;;19.91;58.95;101440.20;1682494;84;21132;-86
2022/06/16 05:25:42;;;;;;;4.97;2.05;;;;;;;20.13;58.54;101440.15;1690187;84;21093;-85
2022/06/16 05:28:09;;;;;;;3.42;1.80;;;;;;;20.27;58.19;101436.98;1692987;84;21529;-89
2022/06/16 05:30:36;;;;;;;4.90;1.87;;;;;;;20.41;57.81;101432.02;1662421;84;21114;-90
2022/06/16 05:33:03;;;;;;;2.52;1.70;;;;;;;20.44;57.51;101436.91;1682026;84;21822;-87
2022/06/16 05:35:30;;;;;;;3.00;1.95;;;;;;;20.51;57.23;101441.77;1695007;84;21129;-88
2022/06/16 05:37:57;;;;;;;3.87;2.15;;;;;;;20.45;56.90;101424.42;1683587;84;21138;-85
2022/06/16 05:40:24;;;;;;;4.30;1.95;;;;;;;20.60;56.77;101440.41;1687523;84;21074;-86
2022/06/16 05:42:51;;;;;;;5.50;2.30;;;;;;;20.66;56.41;101436.36;1687446;84;21098;-86
2022/06/16 05:45:24;;;;;;;6.40;2.05;;;;;;;20.82;56.24;101442.98;1705344;83;22591;-86
2022/06/16 05:47:54;;;;;;;4.25;2.02;;;;;;;20.96;56.00;101435.72;1695873;84;21087;-93
2022/06/16 05:50:22;;;;;;;3.47;2.25;;;;;;;21.04;55.67;101435.23;1689048;84;21029;-94
2022/06/16 05:52:49;;;;;;;6.35;4.53;;;;;;;21.10;55.35;101437.86;1687702;83;21126;-88
2022/06/16 05:55:18;;;;;;;4.10;2.85;;;;;;;21.16;54.75;101435.12;1713262;83;21577;-87
2022/06/16 05:57:45;;;;;;;5.10;2.00;;;;;;;21.16;54.35;101437.80;1716790;83;22157;-89
2022/06/16 06:00:12;;;;;;;5.08;2.62;;;;;;;21.24;54.08;101440.42;1697859;83;21631;-88
2022/06/16 06:02:47;;;;;;;5.17;2.33;;;;;;;21.24;54.08;101440.42;1716465;82;21031;-91
2022/06/16 06:05:14;;;;;;;3.85;1.77;;;;;;;21.60;54.18;101437.46;1735647;82;21019;-89
2022/06/16 06:18:41;;;;;;;6.70;5.30;;;;;;;22.07;51.15;101436.06;1734122;82;21532;-87
2022/06/16 06:21:16;;;;;;;4.42;2.30;;;;;;;21.96;50.82;101420.13;1735664;82;21111;-90
2022/06/16 06:23:43;;;;;;;9.73;5.97;;;;;;;22.07;50.53;101426.67;1734737;82;21766;-87
2022/06/16 06:26:12;;;;;;;6.75;2.80;;;;;;;22.10;49.83;101432.02;1720030;81;21053;-86
2022/06/16 06:28:39;;;;;;;3.17;2.40;;;;;;;22.15;49.64;101434.20;1718577;82;21099;-84
2022/06/16 06:31:11;;;;;;;4.80;2.30;;;;;;;22.29;49.12;101433.58;1721612;82;21130;-90
2022/06/16 06:33:37;;;;;;;5.22;2.70;;;;;;;22.36;48.68;101426.36;1734337;82;21091;-87
2022/06/16 06:36:05;;;;;;;5.10;3.85;;;;;;;22.30;48.15;101425.98;1720436;82;21675;-87
2022/06/16 06:38:32;;;;;;;2.05;1.72;;;;;;;22.34;48.02;101422.81;1731694;81;21075;-87
2022/06/16 06:40:59;;;;;;;4.15;2.70;;;;;;;22.53;48.19;101422.57;1734602;82;21070;-86
2022/06/16 06:43:25;;;;;;;7.22;3.20;;;;;;;22.78;47.62;101415.92;1727294;82;21071;-88
2022/06/16 06:45:52;;;;;;;3.90;2.58;;;;;;;22.96;47.43;101417.91;1733027;82;21707;-87
2022/06/16 06:48:19;;;;;;;4.25;2.67;;;;;;;23.21;47.18;101420.64;1737173;82;21983;-88
2022/06/16 06:50:49;;;;;;;3.58;2.10;;;;;;;23.21;46.13;101422.45;1732994;82;21059;-88
2022/06/16 06:53:15;;;;;;;3.58;2.37;;;;;;;23.04;46.28;101418.23;1719689;82;21089;-86
2022/06/16 06:55:45;;;;;;;3.65;2.15;;;;;;;22.95;45.74;101429.08;1723721;81;21106;-89
2022/06/16 06:58:21;;;;;;;4.47;2.47;;;;;;;22.59;45.33;101432.75;1730043;81;21096;-86
2022/06/16 07:00:58;;;;;;;3.80;2.25;;;;;;;22.15;45.66;101435.53;1729699;82;21067;-89
2022/06/16 07:03:24;;;;;;;6.60;2.80;;;;;;;21.96;46.09;101421.89;1721500;81;21130;-87
2022/06/16 07:05:52;;;;;;;4.03;2.15;;;;;;;21.99;46.08;101429.91;1728811;82;21078;-90
2022/06/16 07:08:25;;;;;;;3.33;1.90;;;;;;;21.98;45.46;101430.37;1725341;81;21103;-91
2022/06/16 07:10:58;;;;;;;7.87;3.92;;;;;;;22.02;45.47;101427.20;1728148;82;21094;-85
2022/06/16 07:13:25;;;;;;;7.70;6.00;;;;;;;22.17;45.49;101431.47;1727570;82;22675;-90
2022/06/16 07:15:52;;;;;;;6.72;3.47;;;;;;;22.32;45.14;101409.88;1737346;82;21207;-90
2022/06/16 07:18:22;;;;;;;5.78;3.33;;;;;;;22.53;45.15;101423.91;1727963;81;21630;-91
2022/06/16 07:20:50;;;;;;;4.70;2.55;;;;;;;22.63;44.96;101417.03;1732248;81;21353;-87
2022/06/16 07:23:18;;;;;;;3.10;1.85;;;;;;;22.67;44.74;101418.78;1723494;81;21609;-86
2022/06/16 07:25:48;;;;;;;2.65;1.65;;;;;;;22.71;44.86;101423.19;1726286;81;21146;-91
2022/06/16 07:28:20;;;;;;;2.95;1.75;;;;;;;22.77;44.70;101430.70;1720080;81;21301;-91
2022/06/16 07:30:51;;;;;;;5.05;3.87;;;;;;;22.82;44.42;101432.87;1728689;81;21118;-91
2022/06/16 07:33:19;;;;;;;3.90;2.05;;;;;;;22.81;44.26;101428.42;1726515;81;21094;-85
2022/06/16 07:35:46;;;;;;;3.25;1.60;;;;;;;22.66;43.91;101427.73;1717715;82;21055;-92
2022/06/16 07:38:13;;;;;;;4.15;1.65;;;;;;;22.57;44.02;101425.64;1730166;82;21777;-91
2022/06/16 07:40:42;;;;;;;4.97;2.02;;;;;;;22.58;44.16;101426.97;1725093;81;21439;-89
2022/06/16 07:43:09;;;;;;;3.52;1.70;;;;;;;22.68;44.13;101427.72;1728254;82;21090;-90
2022/06/16 07:45:38;;;;;;;5.12;3.25;;;;;;;22.74;43.90;101430.30;1727304;82;21114;-90
2022/06/16 07:48:08;;;;;;;4.83;2.20;;;;;;;22.67;43.29;101431.30;1725398;82;21332;-85
2022/06/16 07:50:38;;;;;;;6.40;3.42;;;;;;;22.57;43.19;101423.83;1720953;81;21765;-85
2022/06/16 07:53:05;;;;;;;4.85;2.05;;;;;;;22.69;43.36;101429.47;1734612;82;21074;-84
2022/06/16 07:55:32;;;;;;;2.83;1.35;;;;;;;22.76;43.17;101423.11;1736168;81;21098;-85
2022/06/16 07:57:59;;;;;;;3.87;2.60;;;;;;;22.71;42.95;101415.14;1742592;82;21035;-94
2022/06/16 08:00:28;;;;;;;5.10;2.72;;;;;;;22.79;42.98;101427.56;1734592;82;21149;-85
2022/06/16 08:02:56;;;;;;;5.37;1.72;;;;;;;23.02;42.95;101421.83;1733131;81;21739;-85
2022/06/16 08:05:26;;;;;;;6.03;2.62;;;;;;;23.29;42.36;101432.59;1694743;82;21024;-92
2022/06/16 08:07:53;;;;;;;4.15;1.98;;;;;;;23.43;42.07;101430.56;1720682;82;21088;-86
2022/06/16 08:10:22;;;;;;;4.25;2.10;;;;;;;23.60;41.94;101428.92;1730342;81;21028;-84
2022/06/16 08:12:52;;;;;;;6.45;1.52;;;;;;;23.63;41.32;101433.34;1719248;82;21207;-90
2022/06/16 08:15:18;;;;;;;4.20;1.82;;;;;;;23.27;41.10;101431.73;1724291;82;22551;-91
2022/06/16 08:17:47;;;;;;;4.62;2.52;;;;;;;23.08;41.10;101429.81;1732986;81;21066;-90
2022/06/16 08:20:14;;;;;;;5.03;2.52;;;;;;;23.13;41.20;101437.81;1727252;82;21035;-88
2022/06/16 08:22:42;;;;;;;3.35;1.80;;;;;;;23.28;41.35;101437.09;1728153;81;21091;-91
2022/06/16 08:25:12;;;;;;;3.87;1.60;;;;;;;23.42;41.45;101434.16;1726779;82;21035;-92
2022/06/16 08:27:38;;;;;;;3.35;1.70;;;;;;;23.59;41.29;101437.00;1731845;81;22598;-88
2022/06/16 08:30:09;;;;;;;4.75;1.40;;;;;;;23.66;40.99;101438.20;1738595;81;21071;-95
2022/06/16 08:32:35;;;;;;;3.05;1.37;;;;;;;23.64;40.82;101450.78;1739721;82;22242;-86
2022/06/16 08:35:02;;;;;;;4.67;1.82;;;;;;;23.40;40.29;101440.01;1699673;83;21094;-86
2022/06/16 08:37:29;;;;;;;3.47;1.40;;;;;;;23.33;40.23;101432.09;1679609;84;21082;-90
2022/06/16 08:39:56;;;;;;;3.67;1.70;;;;;;;23.31;40.31;101433.92;1734468;81;22598;-91
2022/06/16 08:42:33;;;;;;;1.65;1.47;;;;;;;23.26;40.30;101443.41;1744552;81;21644;-87
2022/06/16 08:45:21;;;;;;;3.90;1.50;;;;;;;23.36;40.35;101441.45;1725305;81;21085;-87
2022/06/16 08:48:08;;;;;;;2.50;1.55;;;;;;;23.58;40.47;101448.69;1730668;81;21102;-92
2022/06/16 08:51:17;;;;;;;6.08;1.82;;;;;;;23.91;40.51;101438.23;1751183;81;21635;-86
2022/06/16 08:54:04;;;;;;;2.10;1.47;;;;;;;24.20;40.08;101448.42;1744405;81;21815;-92
2022/06/16 08:56:58;;;;;;;6.47;1.52;;;;;;;24.15;39.73;101449.84;1732109;81;22301;-86
2022/06/16 08:59:51;;;;;;;3.05;1.30;;;;;;;24.15;39.82;101453.00;1744432;81;21042;-91
2022/06/16 09:02:55;;;;;;;4.42;1.40;;;;;;;24.25;39.40;101445.16;1744671;81;21046;-87
2022/06/16 09:06:03;;;;;;;3.72;1.30;;;;;;;24.25;39.40;101445.16;1735422;81;21074;-86
2022/06/16 09:08:53;;;;;;;4.60;3.20;;;;;;;23.84;38.97;101437.02;1681171;83;21744;-90
2022/06/16 09:11:44;;;;;;;5.83;1.50;;;;;;;23.76;39.18;101445.66;1673337;81;21161;-90
2022/06/16 09:15:10;;;;;;;3.00;1.77;;;;;;;23.72;39.09;101443.92;1742972;81;21611;-85
2022/06/16 09:17:10;;;;;;;5.60;1.47;;;;;;;23.72;39.18;101437.20;1725942;81;21351;-85
2022/06/16 09:20:03;;;;;;;5.35;1.80;;;;;;;23.84;39.41;101439.70;1739681;81;21066;-91
2022/06/16 09:22:42;;;;;;;3.67;1.32;;;;;;;24.04;39.18;101442.45;1738091;81;21783;-90
2022/06/16 09:25:55;;;;;;;6.30;3.00;;;;;;;24.31;39.45;101440.14;1738087;81;21109;-90
2022/06/16 09:28:35;;;;;;;4.15;1.60;;;;;;;24.63;39.22;101450.23;1742743;81;21170;-90
2022/06/16 09:31:06;;;;;;;2.25;1.20;;;;;;;24.68;38.69;101442.91;1735241;81;21715;-89
2022/06/16 09:33:42;;;;;;;2.92;1.60;;;;;;;24.72;38.76;101442.38;1738621;81;21121;-90
2022/06/16 09:36:16;;;;;;;5.25;3.33;;;;;;;24.75;38.71;101428.39;1728985;81;21771;-88
2022/06/16 09:38:57;;;;;;;4.30;1.50;;;;;;;24.72;37.99;101445.98;1696726;83;21050;-88
2022/06/16 09:44:26;;;;;;;10.28;6.97;;;;;;;24.66;38.21;101435.80;1714509;83;21164;-88
2022/06/16 09:46:56;;;;;;;5.50;3.37;;;;;;;24.58;37.76;101444.93;1700008;83;21077;-91
2022/06/16 09:49:28;;;;;;;6.62;2.10;;;;;;;24.40;37.78;101438.56;1682195;84;21837;-88
2022/06/16 09:52:06;;;;;;;2.27;1.62;;;;;;;24.50;38.18;101446.01;1709041;83;21093;-83
2022/06/16 09:54:44;;;;;;;6.45;2.27;;;;;;;24.66;38.12;101436.68;1680481;84;21736;-90
2022/06/16 09:57:15;;;;;;;5.65;4.05;;;;;;;24.67;37.57;101439.81;1684418;84;21091;-88
2022/06/16 09:59:59;;;;;;;3.50;1.90;;;;;;;24.66;37.44;101445.22;1682042;84;21629;-89
2022/06/16 10:02:33;;;;;;;4.08;1.50;;;;;;;24.53;37.05;101448.20;1675099;84;21840;-92
2022/06/16 10:05:14;;;;;;;2.92;1.82;;;;;;;24.45;37.46;101444.74;1692850;84;21289;-87
2022/06/16 10:07:52;;;;;;;2.90;1.52;;;;;;;24.61;37.62;101449.38;1676691;84;21145;-86
2022/06/16 10:10:46;;;;;;;2.95;1.55;;;;;;;24.88;37.74;101446.50;1695218;84;21074;-86
2022/06/16 10:13:33;;;;;;;10.30;3.90;;;;;;;25.03;37.07;101443.91;1682892;83;21083;-89
2022/06/16 10:16:16;;;;;;;7.12;5.80;;;;;;;24.88;36.99;101449.19;1704193;83;21770;-88
2022/06/16 10:18:43;;;;;;;;;;;;;;;25.02;37.07;101451.11;1723774;83;21074;-84
2022/06/16 10:21:11;;;;;;;5.03;2.58;;;;;;;25.18;36.68;101452.08;1708921;82;20213;-84
2022/06/16 10:23:43;;;;;;;4.03;1.77;;;;;;;25.16;36.34;101450.77;1703286;83;21071;-87
2022/06/16 10:26:11;;;;;;;1.97;1.40;;;;;;;25.17;36.61;101439.52;1686845;83;21124;-86
2022/06/16 10:28:59;;;;;;;6.70;3.77;;;;;;;25.29;36.66;101435.21;1687816;84;22312;-87
2022/06/16 10:31:39;;;;;;;6.40;2.75;;;;;;;25.39;36.29;101434.51;1686413;84;21110;-89
2022/06/16 10:34:18;;;;;;;4.12;1.75;;;;;;;25.48;36.26;101436.09;1692258;84;21693;-85
2022/06/16 10:37:07;;;;;;;3.27;1.62;;;;;;;25.61;36.31;101426.28;1677966;84;21122;-86
2022/06/16 10:39:54;;;;;;;2.58;1.40;;;;;;;25.94;36.45;101431.72;1691732;84;21135;-87
2022/06/16 10:42:49;;;;;;;3.02;1.60;;;;;;;26.37;36.10;101430.91;1676278;84;22058;-85
2022/06/16 10:45:35;;;;;;;3.12;1.62;;;;;;;26.64;35.73;101430.58;1688298;83;21063;-85
2022/06/16 10:51:13;;;;;;;2.47;1.25;;;;;;;27.08;35.09;101444.45;1696913;83;21090;-90
2022/06/16 10:53:45;;;;;;;2.45;1.22;;;;;;;27.26;34.85;101443.48;1682354;83;21289;-86
2022/06/16 10:56:22;;;;;;;5.25;1.62;;;;;;;27.38;34.47;101448.94;1685329;84;21797;-87
2022/06/16 10:59:03;;;;;;;4.22;1.12;;;;;;;27.42;34.18;101451.94;1674381;84;21090;-87
2022/06/16 11:01:41;;;;;;;4.72;2.55;;;;;;;27.40;34.18;101447.93;1689236;84;21090;-87
2022/06/16 11:04:27;;;;;;;3.90;2.10;;;;;;;27.34;33.55;101450.86;1691931;84;21618;-89
2022/06/16 11:06:53;;;;;;;6.80;5.12;;;;;;;27.15;33.68;101452.78;1684038;84;21082;-84
2022/06/16 11:09:24;;;;;;;6.30;4.75;;;;;;;27.14;33.63;101453.73;1688833;84;21831;-84
2022/06/16 11:12:14;;;;;;;3.87;1.95;;;;;;;26.97;33.53;101453.38;1687547;84;21082;-84
2022/06/16 11:14:57;;;;;;;3.92;1.20;;;;;;;26.82;33.47;101452.53;1690958;84;21607;-88
2022/06/16 11:17:32;;;;;;;4.23;2.30;;;;;;;26.87;33.74;101446.05;1691961;84;21118;-91
2022/06/16 11:20:32;;;;;;;3.83;2.98;;;;;;;26.87;33.74;101446.05;1687178;84;21065;-84
2022/06/16 11:22:59;;;;;;;5.17;2.77;;;;;;;26.83;33.64;101465.11;1688673;84;21793;-87
2022/06/16 11:25:39;;;;;;;6.58;3.62;;;;;;;26.28;33.46;101459.55;1694799;84;21133;-85
2022/06/16 11:28:13;;;;;;;6.65;3.72;;;;;;;25.85;33.72;101460.25;1693874;84;21094;-90
2022/06/16 11:30:48;;;;;;;3.10;2.52;;;;;;;25.59;34.06;101460.48;1677151;84;21090;-88
2022/06/16 11:36:32;;;;;;;2.27;1.40;;;;;;;25.46;34.46;101463.08;1691533;84;21742;-83
2022/06/16 11:39:43;;;;;;;4.55;1.98;;;;;;;25.64;34.35;101457.69;1679529;84;21124;-83
2022/06/16 11:42:30;;;;;;;4.40;1.30;;;;;;;25.74;34.41;101453.80;1677284;84;21185;-83
2022/06/16 11:45:17;;;;;;;3.87;1.60;;;;;;;25.57;34.15;101458.30;1725341;82;21604;-88
2022/06/16 11:48:13;;;;;;;2.27;1.20;;;;;;;25.41;34.00;101467.25;1730396;82;21035;-87
2022/06/16 11:51:04;;;;;;;4.67;1.50;;;;;;;24.95;34.28;101451.30;1660270;85;21863;-86
2022/06/16 11:54:09;;;;;;;2.35;1.50;;;;;;;24.76;34.56;101466.53;1666516;85;21170;-86
2022/06/16 11:57:02;;;;;;;2.20;1.30;;;;;;;24.46;34.84;101461.33;1657073;84;21624;-87
2022/06/16 11:59:40;;;;;;;7.47;1.52;;;;;;;24.22;35.25;101455.53;1661323;85;21091;-86
2022/06/16 12:02:34;;;;;;;4.65;1.67;;;;;;;24.24;35.80;101462.23;1636995;86;21114;-82
2022/06/16 12:05:47;;;;;;;3.10;1.82;;;;;;;24.25;35.91;101470.72;1624798;86;21811;-85
2022/06/16 12:08:58;;;;;;;4.42;1.90;;;;;;;24.21;36.25;101467.23;1635747;86;21131;-85
2022/06/16 12:12:06;;;;;;;7.78;4.08;;;;;;;24.25;36.29;101470.28;1624165;87;21086;-81
2022/06/16 12:14:57;;;;;;;6.22;1.75;;;;;;;24.21;36.50;101464.97;1614111;87;21778;-81
2022/06/16 12:17:28;;;;;;;5.28;1.50;;;;;;;24.19;36.29;101463.66;1634738;87;21110;-82
2022/06/16 12:20:26;;;;;;;4.83;1.70;;;;;;;24.28;36.66;101477.39;1613746;86;21150;-83
2022/06/16 12:23:17;;;;;;;5.47;2.00;;;;;;;24.26;36.38;101472.03;1597280;87;21137;-83
2022/06/16 12:25:56;;;;;;;6.92;2.83;;;;;;;24.14;36.35;101470.95;1645823;84;21102;-85
2022/06/16 12:28:52;;;;;;;7.62;4.85;;;;;;;24.01;36.69;101468.08;1675226;84;21109;-84